Don Torcuato, Argentina

7:13 AM ART on September 21, 2014 (GMT -0300)
Villa Ballester | Change Station
CLOSE
Current Station
Personal Weather Station
Location: Villa Ballester, BUENOS AIRES
Elevation: 120 ft
Nearby Weather Stations

Elev 120 ft 34.54 °S, 58.55 °W | Updated 2 minutes ago

Mostly Cloudy
Mostly Cloudy
52.3 °F
Feels Like 52.3 °F
N
3.1
Wind Variable Wind from SW
Gusts 5.4 mph

Today
High -- | Low -- °F
--% Chance of Precip.
Yesterday
High -- | Low -- °F
Precip. -- in
6:45 AM 6:50 PM
Waning Crescent, 7% visible
Pressure 30.18 in
Visibility 6.2 miles
Clouds Mostly Cloudy 2000 ft
Dew Point 47 °F
Humidity 81%
Rainfall 0.00 in
Snow Depth Not available.
UV 0 out of 12
Pollen Not available.
Air Quality Not available.
Flu Activity Not available.
METAR SADF 211000Z 00000KT 9999 BKN020 10/06 Q1022

More Conditions Fewer Conditions

Pressure 30.18 in
Visibility 6.2 miles
Clouds Mostly Cloudy 2000 ft
Dew Point 47 °F
Humidity 81%
Rainfall 0.00 in
Snow Depth Not available.
UV 0 out of 12
Pollen Not available.
Air Quality Not available.
Flu Activity Not available.
METAR SADF 211000Z 00000KT 9999 BKN020 10/06 Q1022

More Conditions Fewer Conditions

10-Day Weather Forecast

Almanac

Astronomy

Sep. 21, 2014 Rise Set
Actual Time 6:45 AM ART 6:50 PM ART
Civil Twilight 6:20 AM ART 7:15 PM ART
Nautical Twilight 5:51 AM ART 7:44 PM ART
Astronomical Twilight 5:21 AM ART 8:14 PM ART
Moon 5:06 AM ART 4:41 PM ART
Length of Visible Light 12h 54m
Length of Day
12h 04m
Tomorrow will be 2m 9s longer.
Waning Crescent, 7% of the Moon is Illuminated
Today
Waning Crescent
Sep 24
New
Oct 1
First Quarter
Oct 8
Full
Oct 15
Last Quarter

Yesterday's Extremes

Country Highs Country Lows

Community

WunderPhotos

Upload Photos

1,755,107 photos uploaded!

Nearby

Snow Depth

Not available.

Earthquake Activity

City Distance Mag. Time & Date
No recent earthquake activity has been reported nearby.
Minimum magnitude displayed is 2.5.

Coastal Water Temperatures

Place Temperature
No Stations Reporting

Nearby Weather Stations